createdAt,value
2023-01-11T00:00:20.381Z,81.13
2023-01-11T00:01:13.707Z,81.10
2023-01-11T00:01:51.354Z,81.34
2023-01-11T00:02:25.381Z,81.03
2023-01-11T00:03:00.894Z,81.17
2023-01-11T00:03:34.482Z,81.27
2023-01-11T00:04:07.823Z,81.37
2023-01-11T00:04:41.669Z,81.50
2023-01-11T00:05:15.384Z,81.16
2023-01-11T00:05:48.847Z,81.50
2023-01-11T00:06:22.310Z,81.33
2023-01-11T00:06:56.507Z,81.50
2023-01-11T00:07:30.213Z,81.45
2023-01-11T00:08:05.053Z,81.34
2023-01-11T00:08:38.374Z,81.61
2023-01-11T00:09:12.507Z,81.63
2023-01-11T00:09:47.993Z,81.64
2023-01-11T00:10:22.154Z,81.52
2023-01-11T00:10:56.091Z,81.64
2023-01-11T00:11:29.616Z,81.63
2023-01-11T00:12:03.174Z,81.72
2023-01-11T00:12:36.669Z,81.71
2023-01-11T00:13:10.092Z,81.55
2023-01-11T00:13:45.564Z,81.55
2023-01-11T00:14:19.080Z,81.71
2023-01-11T00:14:52.432Z,81.91
2023-01-11T00:15:26.051Z,81.92
2023-01-11T00:16:06.422Z,81.90
2023-01-11T00:16:40.057Z,81.78
2023-01-11T00:17:13.486Z,82.01
2023-01-11T00:17:46.952Z,81.94
2023-01-11T00:18:20.419Z,82.12
2023-01-11T00:18:53.844Z,82.12
2023-01-11T00:19:27.275Z,82.33
2023-01-11T00:20:00.699Z,82.22
2023-01-11T00:20:34.161Z,82.08
2023-01-11T00:21:08.153Z,82.32
2023-01-11T00:21:41.738Z,82.33
2023-01-11T00:22:15.142Z,82.15
2023-01-11T00:22:48.543Z,82.30
2023-01-11T00:23:25.240Z,82.44
2023-01-11T00:23:58.683Z,82.20
2023-01-11T00:24:32.241Z,82.30
2023-01-11T00:25:06.028Z,82.27
2023-01-11T00:25:39.495Z,82.07
2023-01-11T00:26:13.917Z,82.00
2023-01-11T00:26:47.777Z,82.29
2023-01-11T00:27:21.309Z,82.30
2023-01-11T00:27:55.223Z,81.87
2023-01-11T00:28:28.801Z,82.17
2023-01-11T00:29:02.394Z,82.07
2023-01-11T00:29:35.816Z,81.96
2023-01-11T00:30:09.845Z,81.99
2023-01-11T00:30:43.216Z,82.12
2023-01-11T00:31:17.809Z,81.87
2023-01-11T00:31:53.503Z,81.98
2023-01-11T00:32:27.579Z,81.84
2023-01-11T00:33:01.207Z,81.98
2023-01-11T00:33:34.633Z,81.97
2023-01-11T00:34:08.175Z,81.91
2023-01-11T00:34:41.744Z,82.05
2023-01-11T00:35:15.503Z,81.64
2023-01-11T00:35:51.794Z,81.80
2023-01-11T00:36:25.617Z,81.70
2023-01-11T00:36:59.134Z,81.56
2023-01-11T00:37:32.747Z,81.61
2023-01-11T00:38:06.209Z,81.50
2023-01-11T00:38:51.782Z,81.51
2023-01-11T00:39:25.349Z,81.40
2023-01-11T00:39:58.917Z,81.33
2023-01-11T00:40:35.318Z,81.51
2023-01-11T00:41:28.047Z,81.19
2023-01-11T00:42:20.262Z,81.13
2023-01-11T00:43:12.608Z,81.38
2023-01-11T00:44:05.078Z,81.16
2023-01-11T00:44:57.382Z,80.52
2023-01-11T00:45:50.318Z,81.01
2023-01-11T00:46:42.523Z,81.22
2023-01-11T00:47:36.153Z,81.05
2023-01-11T00:48:11.102Z,81.24
2023-01-11T00:48:44.550Z,80.91
2023-01-11T00:49:18.334Z,81.09
2023-01-11T00:49:51.964Z,81.20
2023-01-11T00:50:27.059Z,81.09
2023-01-11T00:51:00.491Z,81.00
2023-01-11T00:51:33.973Z,81.17
2023-01-11T00:52:09.892Z,81.25
2023-01-11T00:52:43.545Z,81.24
2023-01-11T00:53:18.628Z,81.41
2023-01-11T00:53:52.640Z,81.46
2023-01-11T00:54:26.146Z,81.44
2023-01-11T00:54:59.512Z,81.53
2023-01-11T00:55:33.104Z,81.80
2023-01-11T00:56:06.659Z,81.39
2023-01-11T00:56:40.517Z,81.38
2023-01-11T00:57:13.851Z,81.32
2023-01-11T00:57:47.338Z,81.49
2023-01-11T00:58:20.853Z,81.36
2023-01-11T00:58:54.204Z,81.61
2023-01-11T00:59:27.618Z,81.51
2023-01-11T01:00:01.096Z,81.47
2023-01-11T01:00:34.625Z,81.36
2023-01-11T01:01:08.307Z,81.43
2023-01-11T01:01:44.243Z,81.29
2023-01-11T01:02:17.733Z,81.48
2023-01-11T01:02:51.265Z,81.63
2023-01-11T01:03:24.741Z,81.51
2023-01-11T01:03:59.987Z,81.70
2023-01-11T01:04:33.510Z,81.53
2023-01-11T01:05:07.513Z,81.40
2023-01-11T01:05:40.847Z,81.46
2023-01-11T01:06:14.237Z,81.70
2023-01-11T01:06:48.139Z,81.78
2023-01-11T01:07:21.580Z,81.85
2023-01-11T01:07:55.084Z,81.82
2023-01-11T01:08:28.651Z,81.91
2023-01-11T01:09:02.223Z,81.94
2023-01-11T01:09:35.903Z,81.80
2023-01-11T01:10:10.594Z,81.91
2023-01-11T01:10:43.997Z,82.11
2023-01-11T01:11:17.514Z,82.07
2023-01-11T01:11:51.021Z,81.98
2023-01-11T01:12:44.420Z,82.08
2023-01-11T01:13:36.933Z,81.72
2023-01-11T01:14:26.934Z,82.01
2023-01-11T01:15:00.437Z,82.03
2023-01-11T01:15:36.426Z,82.06
2023-01-11T01:16:09.928Z,82.08
2023-01-11T01:16:43.540Z,82.11
2023-01-11T01:17:16.908Z,82.19
2023-01-11T01:17:54.053Z,82.07
2023-01-11T01:18:27.479Z,82.06
2023-01-11T01:19:01.183Z,82.16
2023-01-11T01:19:36.849Z,82.28
2023-01-11T01:20:10.835Z,82.12
2023-01-11T01:20:44.463Z,82.18
2023-01-11T01:21:17.889Z,82.22
2023-01-11T01:21:51.363Z,82.34
2023-01-11T01:22:24.875Z,82.24
2023-01-11T01:22:58.375Z,82.31
2023-01-11T01:23:31.800Z,82.43
2023-01-11T01:24:05.460Z,82.40
2023-01-11T01:24:38.885Z,82.37
2023-01-11T01:25:12.366Z,82.29
2023-01-11T01:25:45.842Z,82.27
2023-01-11T01:26:19.372Z,82.29
2023-01-11T01:26:52.883Z,82.44
2023-01-11T01:27:26.668Z,82.44
2023-01-11T01:28:00.054Z,82.33
2023-01-11T01:28:43.973Z,82.44
2023-01-11T01:29:17.722Z,82.58
2023-01-11T01:29:51.109Z,82.45
2023-01-11T01:30:24.506Z,82.71
2023-01-11T01:30:57.881Z,82.66
2023-01-11T01:31:31.553Z,82.62
2023-01-11T01:32:05.363Z,82.48
2023-01-11T01:32:38.874Z,82.62
2023-01-11T01:33:12.225Z,82.52
2023-01-11T01:33:45.546Z,82.58
2023-01-11T01:34:18.967Z,82.59
2023-01-11T01:34:53.862Z,82.59
2023-01-11T01:35:28.627Z,82.69
2023-01-11T01:36:02.726Z,82.80
2023-01-11T01:36:36.304Z,82.74
2023-01-11T01:37:11.719Z,82.80
2023-01-11T01:37:45.241Z,82.88
2023-01-11T01:38:18.713Z,82.76
2023-01-11T01:38:52.265Z,82.74
2023-01-11T01:39:25.623Z,82.84
2023-01-11T01:39:59.061Z,83.03
2023-01-11T01:40:32.561Z,82.91
2023-01-11T01:41:06.097Z,83.00
2023-01-11T01:41:41.050Z,83.00
2023-01-11T01:42:17.932Z,82.83
2023-01-11T01:42:55.174Z,82.97
2023-01-11T01:43:52.990Z,83.05
2023-01-11T01:44:53.884Z,82.90
2023-01-11T01:45:29.090Z,82.83
2023-01-11T01:46:02.505Z,82.83
2023-01-11T01:46:36.041Z,82.99
2023-01-11T01:47:10.301Z,83.06
2023-01-11T01:47:51.730Z,83.01
2023-01-11T01:48:26.980Z,82.98
2023-01-11T01:49:07.335Z,82.96
2023-01-11T01:49:42.619Z,83.01
2023-01-11T01:50:18.693Z,82.98
2023-01-11T01:50:55.933Z,83.27
2023-01-11T01:51:39.619Z,83.01
2023-01-11T01:52:13.855Z,83.23
2023-01-11T01:52:52.475Z,83.09
2023-01-11T01:53:38.414Z,83.19
2023-01-11T01:54:21.197Z,83.24
2023-01-11T01:54:58.908Z,83.29
2023-01-11T01:55:37.678Z,83.28
2023-01-11T01:56:20.180Z,83.16
2023-01-11T01:57:00.032Z,82.99
2023-01-11T01:57:37.555Z,83.12
2023-01-11T01:58:16.667Z,83.13
2023-01-11T01:59:05.584Z,83.24
2023-01-11T01:59:39.245Z,83.09
2023-01-11T02:00:14.107Z,83.18
2023-01-11T02:00:47.534Z,83.16
2023-01-11T02:01:39.517Z,83.22
2023-01-11T02:02:12.933Z,82.97
2023-01-11T02:02:47.159Z,83.23
2023-01-11T02:03:24.571Z,83.06
2023-01-11T02:03:58.135Z,83.08
2023-01-11T02:04:38.537Z,82.83
2023-01-11T02:05:14.011Z,83.27
2023-01-11T02:05:48.171Z,82.92
2023-01-11T02:06:23.145Z,82.83
2023-01-11T02:07:15.055Z,83.08
2023-01-11T02:07:48.986Z,83.23
2023-01-11T02:08:33.328Z,83.24
2023-01-11T02:09:23.683Z,83.16
2023-01-11T02:09:57.158Z,83.09
2023-01-11T02:10:33.211Z,83.01
2023-01-11T02:11:27.980Z,83.13
2023-01-11T02:12:03.215Z,83.12
2023-01-11T02:12:51.008Z,82.99
2023-01-11T02:13:24.991Z,83.11
2023-01-11T02:14:09.451Z,83.26
2023-01-11T02:14:44.545Z,83.03
2023-01-11T02:15:21.128Z,83.21
2023-01-11T02:16:08.311Z,83.25
2023-01-11T02:16:42.181Z,83.19
2023-01-11T02:17:15.959Z,83.32
2023-01-11T02:17:49.495Z,83.40
2023-01-11T02:18:23.133Z,83.33
2023-01-11T02:18:58.923Z,83.33
2023-01-11T02:20:00.248Z,83.27
2023-01-11T02:20:43.191Z,83.19
2023-01-11T02:21:27.824Z,83.30
2023-01-11T02:22:28.736Z,83.56
2023-01-11T02:23:02.136Z,83.38
2023-01-11T02:23:45.081Z,83.64
2023-01-11T02:24:36.883Z,83.57
2023-01-11T02:25:34.751Z,83.62
2023-01-11T02:26:10.775Z,83.52
2023-01-11T02:27:02.630Z,83.47
2023-01-11T02:28:07.827Z,83.59
2023-01-11T02:28:52.762Z,83.76
2023-01-11T02:29:33.276Z,83.62
2023-01-11T02:30:14.139Z,83.70
2023-01-11T02:31:12.592Z,83.86
2023-01-11T02:32:18.274Z,84.00
2023-01-11T02:32:57.262Z,84.01
2023-01-11T02:34:08.570Z,83.94
2023-01-11T02:34:57.676Z,83.89
2023-01-11T02:35:47.156Z,83.86
2023-01-11T02:36:47.005Z,83.83
2023-01-11T02:37:39.532Z,83.73
2023-01-11T02:38:33.770Z,84.12
2023-01-11T02:39:10.025Z,83.79
2023-01-11T02:39:52.446Z,83.95
2023-01-11T02:40:36.162Z,83.73
2023-01-11T02:41:28.708Z,83.85
2023-01-11T02:42:39.781Z,84.03
2023-01-11T02:43:52.112Z,83.96
2023-01-11T02:44:55.690Z,84.11
2023-01-11T02:45:29.238Z,84.02
2023-01-11T02:46:13.534Z,83.96
2023-01-11T02:46:52.708Z,84.09
2023-01-11T02:47:55.219Z,84.05
2023-01-11T02:48:37.545Z,84.12
2023-01-11T02:51:03.783Z,84.10
2023-01-11T02:51:52.023Z,84.30
2023-01-11T02:52:49.841Z,84.13
2023-01-11T02:53:32.236Z,84.32
2023-01-11T02:54:09.683Z,84.13
2023-01-11T02:54:46.702Z,84.15
2023-01-11T02:55:27.012Z,84.11
2023-01-11T02:56:06.161Z,84.18
2023-01-11T02:56:43.779Z,84.29
2023-01-11T02:57:17.783Z,84.43
2023-01-11T02:57:55.105Z,84.48
2023-01-11T02:58:33.030Z,84.38
2023-01-11T02:59:11.769Z,84.39
2023-01-11T02:59:49.311Z,84.36
2023-01-11T03:00:24.553Z,84.35
2023-01-11T03:00:59.871Z,84.57
2023-01-11T03:01:33.412Z,84.41
2023-01-11T03:02:06.959Z,84.51
2023-01-11T03:02:40.388Z,84.50
2023-01-11T03:03:24.977Z,84.65
2023-01-11T03:03:59.116Z,84.75
2023-01-11T03:04:35.840Z,84.94
2023-01-11T03:05:14.536Z,84.83
2023-01-11T03:06:12.728Z,84.85
2023-01-11T03:06:47.877Z,84.68
2023-01-11T03:07:49.242Z,84.84
2023-01-11T03:08:34.707Z,84.93
2023-01-11T03:09:26.538Z,85.21
2023-01-11T03:10:12.307Z,84.88
2023-01-11T03:11:11.671Z,84.91
2023-01-11T03:12:18.809Z,85.01
2023-01-11T03:13:08.793Z,85.06
2023-01-11T03:13:57.635Z,85.25
2023-01-11T03:14:46.207Z,85.15
2023-01-11T03:15:54.139Z,85.36
2023-01-11T03:16:31.342Z,85.33
2023-01-11T03:17:17.000Z,85.53
2023-01-11T03:17:50.338Z,85.44
2023-01-11T03:18:37.025Z,85.59
2023-01-11T03:19:19.134Z,85.64
2023-01-11T03:19:54.803Z,85.60
2023-01-11T03:20:37.576Z,85.75
2023-01-11T03:21:49.047Z,85.65
2023-01-11T03:22:32.543Z,85.59
2023-01-11T03:23:30.569Z,85.63
2023-01-11T03:24:09.472Z,85.48
2023-01-11T03:24:58.371Z,85.75
2023-01-11T03:25:47.751Z,85.79
2023-01-11T03:26:33.160Z,85.79
2023-01-11T03:27:29.116Z,85.85
2023-01-11T03:28:06.328Z,85.82
2023-01-11T03:28:51.900Z,86.11
2023-01-11T03:29:45.597Z,85.93
2023-01-11T03:30:29.057Z,85.93
2023-01-11T03:31:31.089Z,86.00
2023-01-11T03:32:26.087Z,86.02
2023-01-11T03:33:10.282Z,86.01
2023-01-11T03:34:12.817Z,85.92
2023-01-11T03:35:08.629Z,85.98
2023-01-11T03:35:45.804Z,85.85
2023-01-11T03:36:21.963Z,86.08
2023-01-11T03:37:01.457Z,86.05
2023-01-11T03:37:51.374Z,86.27
2023-01-11T03:38:37.194Z,86.23
2023-01-11T03:39:33.873Z,86.24
2023-01-11T03:40:17.433Z,86.51
2023-01-11T03:40:56.265Z,86.25
2023-01-11T03:41:34.402Z,86.36
2023-01-11T03:42:10.133Z,86.39
2023-01-11T03:43:06.649Z,86.32
2023-01-11T03:43:44.527Z,86.35
2023-01-11T03:44:20.041Z,86.37
2023-01-11T03:44:57.539Z,86.23
2023-01-11T03:45:35.037Z,86.52
2023-01-11T03:46:22.352Z,86.37
2023-01-11T03:47:03.277Z,86.27
2023-01-11T03:47:36.716Z,86.36
2023-01-11T03:48:17.121Z,86.22
2023-01-11T03:49:06.770Z,86.28
2023-01-11T03:50:11.382Z,86.23
2023-01-11T03:50:48.491Z,86.37
2023-01-11T03:51:30.075Z,86.28
2023-01-11T03:52:09.595Z,86.51
2023-01-11T03:52:44.124Z,86.52
2023-01-11T03:53:20.055Z,86.62
2023-01-11T03:53:58.543Z,86.41
2023-01-11T03:54:34.070Z,86.44
2023-01-11T03:55:10.623Z,86.56
2023-01-11T03:55:47.039Z,86.45
2023-01-11T03:56:26.507Z,86.39
2023-01-11T03:57:20.629Z,86.70
2023-01-11T03:57:55.883Z,86.47
2023-01-11T03:58:29.842Z,86.48
2023-01-11T03:59:03.358Z,86.67
2023-01-11T03:59:38.660Z,86.65
2023-01-11T04:00:12.430Z,86.44
2023-01-11T04:00:46.549Z,86.81
2023-01-11T04:01:20.120Z,86.56
2023-01-11T04:01:57.213Z,86.67
2023-01-11T04:02:40.536Z,86.42
2023-01-11T04:03:14.933Z,86.35
2023-01-11T04:03:48.260Z,86.62
2023-01-11T04:04:22.256Z,86.62
2023-01-11T04:04:55.667Z,86.47
2023-01-11T04:05:29.354Z,86.68
2023-01-11T04:06:03.375Z,86.48
2023-01-11T04:06:38.674Z,86.67
2023-01-11T04:07:12.161Z,86.45
2023-01-11T04:07:45.986Z,86.52
2023-01-11T04:08:19.967Z,86.37
2023-01-11T04:08:53.365Z,86.26
2023-01-11T04:09:26.722Z,86.06
2023-01-11T04:10:00.260Z,86.14
2023-01-11T04:10:33.692Z,86.34
2023-01-11T04:11:07.627Z,86.10
2023-01-11T04:11:41.075Z,86.04
2023-01-11T04:12:14.552Z,85.80
2023-01-11T04:12:49.043Z,85.80
2023-01-11T04:13:22.549Z,86.04
2023-01-11T04:13:56.059Z,85.68
2023-01-11T04:14:29.586Z,85.86
2023-01-11T04:15:05.368Z,85.85
2023-01-11T04:15:38.856Z,85.85
2023-01-11T04:16:12.293Z,85.86
2023-01-11T04:16:45.740Z,85.82
2023-01-11T04:17:19.171Z,85.75
2023-01-11T04:17:52.654Z,85.95
2023-01-11T04:18:26.183Z,85.96
2023-01-11T04:19:00.133Z,85.85
2023-01-11T04:19:33.507Z,85.94
2023-01-11T04:20:10.139Z,85.92
2023-01-11T04:20:43.593Z,85.85
2023-01-11T04:21:17.074Z,85.93
2023-01-11T04:21:50.416Z,85.98
2023-01-11T04:22:23.847Z,85.87
2023-01-11T04:22:57.238Z,85.91
2023-01-11T04:23:31.177Z,85.92
2023-01-11T04:24:04.737Z,86.04
2023-01-11T04:24:38.106Z,86.16
2023-01-11T04:25:11.528Z,85.96
2023-01-11T04:25:45.031Z,85.97
2023-01-11T04:26:18.407Z,85.84
2023-01-11T04:26:51.813Z,85.78
2023-01-11T04:27:25.153Z,85.96
2023-01-11T04:27:59.420Z,85.75
2023-01-11T04:28:34.517Z,85.81
2023-01-11T04:29:07.891Z,85.94
2023-01-11T04:29:41.434Z,85.93
2023-01-11T04:30:15.134Z,86.11
2023-01-11T04:30:48.512Z,86.09
2023-01-11T04:31:22.180Z,85.75
2023-01-11T04:31:55.717Z,85.62
2023-01-11T04:32:29.178Z,85.85
2023-01-11T04:33:02.552Z,85.86
2023-01-11T04:33:36.091Z,86.02
2023-01-11T04:34:09.659Z,86.00
2023-01-11T04:34:43.326Z,86.03
2023-01-11T04:35:16.811Z,85.94
2023-01-11T04:35:50.520Z,85.87
2023-01-11T04:36:24.370Z,86.13
2023-01-11T04:36:57.735Z,85.85
2023-01-11T04:37:31.260Z,85.71
2023-01-11T04:38:06.848Z,85.84
2023-01-11T04:38:40.174Z,85.92
2023-01-11T04:39:13.536Z,85.79
2023-01-11T04:39:47.177Z,85.83
2023-01-11T04:40:20.653Z,85.64
2023-01-11T04:41:14.158Z,85.72
2023-01-11T04:42:06.442Z,85.94
2023-01-11T04:42:40.020Z,85.90
2023-01-11T04:43:13.648Z,85.85
2023-01-11T04:43:47.023Z,86.16
2023-01-11T04:44:20.382Z,85.95
2023-01-11T04:44:53.821Z,85.86
2023-01-11T04:45:27.177Z,85.82
2023-01-11T04:46:00.641Z,85.93
2023-01-11T04:46:34.362Z,85.87
2023-01-11T04:47:07.730Z,85.59
2023-01-11T04:47:41.210Z,85.65
2023-01-11T04:48:14.552Z,85.67
2023-01-11T04:48:48.031Z,85.40
2023-01-11T04:49:21.416Z,85.57
2023-01-11T04:49:54.902Z,85.58
2023-01-11T04:50:28.432Z,85.79
2023-01-11T04:51:01.901Z,85.93
2023-01-11T04:51:35.343Z,86.01
2023-01-11T04:52:11.649Z,85.85
2023-01-11T04:52:45.097Z,86.12
2023-01-11T04:53:18.412Z,85.69
2023-01-11T04:53:51.981Z,85.67
2023-01-11T04:54:25.401Z,85.68
2023-01-11T04:54:58.753Z,85.89
2023-01-11T04:55:32.149Z,85.73
2023-01-11T04:56:07.244Z,85.91
2023-01-11T04:56:40.774Z,85.73
2023-01-11T04:57:16.356Z,85.60
2023-01-11T04:57:49.730Z,85.35
2023-01-11T04:58:23.102Z,85.51
2023-01-11T04:58:56.877Z,85.41
2023-01-11T04:59:30.519Z,85.70
2023-01-11T05:00:11.019Z,85.65
2023-01-11T05:00:44.503Z,85.48
2023-01-11T05:01:19.633Z,85.48
2023-01-11T05:01:53.121Z,85.35
2023-01-11T05:02:26.699Z,85.68
2023-01-11T05:03:00.159Z,85.51
2023-01-11T05:03:33.626Z,85.46
2023-01-11T05:04:07.232Z,85.58
2023-01-11T05:04:40.823Z,85.57
2023-01-11T05:05:14.251Z,84.94
2023-01-11T05:06:01.623Z,84.50
2023-01-11T05:06:35.042Z,84.39
2023-01-11T05:07:09.530Z,83.98
2023-01-11T05:07:43.137Z,83.59
2023-01-11T05:08:16.544Z,83.10
2023-01-11T05:08:49.967Z,83.25
2023-01-11T05:09:23.477Z,83.34
2023-01-11T05:09:56.788Z,83.34
2023-01-11T05:10:32.460Z,83.64
2023-01-11T05:11:08.620Z,83.44
2023-01-11T05:11:42.261Z,83.27
2023-01-11T05:12:15.664Z,83.08
2023-01-11T05:12:49.075Z,82.42
2023-01-11T05:13:41.639Z,81.35
2023-01-11T05:14:16.771Z,80.82
2023-01-11T05:14:50.227Z,81.10
2023-01-11T05:15:23.924Z,81.22
2023-01-11T05:15:57.274Z,81.13
2023-01-11T05:16:30.780Z,81.16
2023-01-11T05:17:04.204Z,80.71
2023-01-11T05:17:37.687Z,80.90
2023-01-11T05:18:11.236Z,80.01
2023-01-11T05:18:48.862Z,79.29
2023-01-11T05:19:22.291Z,78.98
2023-01-11T05:19:55.677Z,79.42
2023-01-11T05:20:28.997Z,80.04
2023-01-11T05:21:02.851Z,80.31
2023-01-11T05:21:39.440Z,80.29
2023-01-11T05:22:12.853Z,80.42
2023-01-11T05:22:46.211Z,80.53
2023-01-11T05:23:19.571Z,80.51
2023-01-11T05:23:54.398Z,80.54
2023-01-11T05:24:27.927Z,80.46
2023-01-11T05:25:01.388Z,80.41
2023-01-11T05:25:34.885Z,79.91
2023-01-11T05:26:20.458Z,79.90
2023-01-11T05:26:53.857Z,80.09
2023-01-11T05:27:27.245Z,80.00
2023-01-11T05:28:00.621Z,79.95
2023-01-11T05:28:35.122Z,79.88
2023-01-11T05:29:11.322Z,79.23
2023-01-11T05:29:45.936Z,79.21
2023-01-11T05:30:19.651Z,79.06
2023-01-11T05:30:53.659Z,78.77
2023-01-11T05:31:27.636Z,79.22
2023-01-11T05:32:01.443Z,79.19
2023-01-11T05:32:35.002Z,79.32
2023-01-11T05:33:08.382Z,79.00
2023-01-11T05:33:42.073Z,78.31
2023-01-11T05:34:16.794Z,77.84
2023-01-11T05:34:50.186Z,78.04
2023-01-11T05:35:23.841Z,78.03
2023-01-11T05:36:02.821Z,77.53
2023-01-11T05:36:36.794Z,77.40
2023-01-11T05:37:10.108Z,77.63
2023-01-11T05:37:43.597Z,77.67
2023-01-11T05:38:17.174Z,77.73
2023-01-11T05:38:52.438Z,77.62
2023-01-11T05:39:25.952Z,77.55
2023-01-11T05:39:59.330Z,77.39
2023-01-11T05:40:32.806Z,77.58
2023-01-11T05:41:08.722Z,77.87
2023-01-11T05:41:42.390Z,77.30
2023-01-11T05:42:16.957Z,76.75
2023-01-11T05:42:50.492Z,76.91
2023-01-11T05:43:24.050Z,77.53
2023-01-11T05:44:16.389Z,77.64
2023-01-11T05:45:08.562Z,77.74
2023-01-11T05:45:41.957Z,77.88
2023-01-11T05:46:15.391Z,77.98
2023-01-11T05:46:49.065Z,77.76
2023-01-11T05:47:24.782Z,77.48
2023-01-11T05:47:59.573Z,77.87
2023-01-11T05:48:32.930Z,77.65
2023-01-11T05:49:07.453Z,77.88
2023-01-11T05:49:40.787Z,77.52
2023-01-11T05:50:14.214Z,77.39
2023-01-11T05:51:05.561Z,77.74
2023-01-11T05:51:40.057Z,77.46
2023-01-11T05:52:13.466Z,77.05
2023-01-11T05:52:46.908Z,77.16
2023-01-11T05:53:21.905Z,77.02
2023-01-11T05:53:56.707Z,77.09
2023-01-11T05:54:30.328Z,76.96
2023-01-11T05:55:04.021Z,77.49
2023-01-11T05:55:37.476Z,77.17
2023-01-11T05:56:13.364Z,77.44
2023-01-11T05:56:46.883Z,77.71
2023-01-11T05:57:20.616Z,78.05
2023-01-11T05:57:55.238Z,78.02
2023-01-11T05:58:28.719Z,77.68
2023-01-11T05:59:04.125Z,78.04
2023-01-11T05:59:37.696Z,78.21
2023-01-11T06:00:12.891Z,78.35
2023-01-11T06:00:51.122Z,78.49
2023-01-11T06:01:25.512Z,78.10
2023-01-11T06:01:58.981Z,77.76
2023-01-11T06:02:32.719Z,78.13
2023-01-11T06:03:06.681Z,77.77
2023-01-11T06:03:40.075Z,77.97
2023-01-11T06:04:13.537Z,78.08
2023-01-11T06:04:46.941Z,78.19
2023-01-11T06:05:20.607Z,78.09
2023-01-11T06:05:54.756Z,77.97
2023-01-11T06:06:28.194Z,78.10
2023-01-11T06:07:01.667Z,78.32
2023-01-11T06:07:35.202Z,78.36
2023-01-11T06:08:08.832Z,78.33
2023-01-11T06:08:42.262Z,78.58
2023-01-11T06:09:15.707Z,78.49
2023-01-11T06:09:49.097Z,78.42
2023-01-11T06:10:22.500Z,78.16
2023-01-11T06:10:57.116Z,78.52
2023-01-11T06:11:30.633Z,78.50
2023-01-11T06:12:04.042Z,78.41
2023-01-11T06:12:37.388Z,78.08
2023-01-11T06:13:29.025Z,78.35
2023-01-11T06:14:02.505Z,78.34
2023-01-11T06:14:38.038Z,78.54
2023-01-11T06:15:11.791Z,78.72
2023-01-11T06:15:45.205Z,78.61
2023-01-11T06:16:20.805Z,78.87
2023-01-11T06:16:55.096Z,78.89
2023-01-11T06:17:28.597Z,78.89
2023-01-11T06:18:02.024Z,78.88
2023-01-11T06:18:38.040Z,78.75
2023-01-11T06:19:11.708Z,78.32
2023-01-11T06:19:45.039Z,78.12
2023-01-11T06:20:18.494Z,78.37
2023-01-11T06:20:53.822Z,78.60
2023-01-11T06:21:27.302Z,78.65
2023-01-11T06:22:00.706Z,78.72
2023-01-11T06:22:34.140Z,78.98
2023-01-11T06:23:07.640Z,78.87
2023-01-11T06:23:44.313Z,78.85
2023-01-11T06:24:17.965Z,79.01
2023-01-11T06:24:51.447Z,78.90
2023-01-11T06:25:24.870Z,78.70
2023-01-11T06:26:02.629Z,78.58
2023-01-11T06:26:38.808Z,78.62
2023-01-11T06:27:17.731Z,78.92
2023-01-11T06:27:52.987Z,79.17
2023-01-11T06:28:26.400Z,78.95
2023-01-11T06:28:59.811Z,79.38
2023-01-11T06:29:33.375Z,79.13
2023-01-11T06:30:07.660Z,79.31
2023-01-11T06:30:41.492Z,79.28
2023-01-11T06:31:17.615Z,79.08
2023-01-11T06:31:51.522Z,79.41
2023-01-11T06:32:24.971Z,79.18
2023-01-11T06:33:07.744Z,79.39
2023-01-11T06:33:41.373Z,79.32
2023-01-11T06:34:14.807Z,79.44
2023-01-11T06:34:48.142Z,79.69
2023-01-11T06:35:21.926Z,79.71
2023-01-11T06:35:56.145Z,79.66
2023-01-11T06:36:29.900Z,79.82
2023-01-11T06:37:03.441Z,79.73
2023-01-11T06:37:36.867Z,79.72
2023-01-11T06:38:12.512Z,79.86
2023-01-11T06:38:46.089Z,79.73
2023-01-11T06:39:19.740Z,79.59
2023-01-11T06:39:53.073Z,79.61
2023-01-11T06:40:26.473Z,79.91
2023-01-11T06:41:02.228Z,79.88
2023-01-11T06:41:35.639Z,80.08
2023-01-11T06:42:08.990Z,80.33
2023-01-11T06:42:42.629Z,79.94
2023-01-11T06:43:16.063Z,79.86
2023-01-11T06:43:51.322Z,79.84
2023-01-11T06:44:24.745Z,79.84
2023-01-11T06:44:58.079Z,79.96
2023-01-11T06:45:31.928Z,80.09
2023-01-11T06:46:07.633Z,80.30
2023-01-11T06:46:41.366Z,80.53
2023-01-11T06:47:14.809Z,80.56
2023-01-11T06:47:48.437Z,80.83
2023-01-11T06:48:23.357Z,80.98
2023-01-11T06:48:56.766Z,80.91
2023-01-11T06:49:30.384Z,81.12
2023-01-11T06:50:04.622Z,81.24
2023-01-11T06:50:37.984Z,81.07
2023-01-11T06:51:12.240Z,81.27
2023-01-11T06:51:45.728Z,80.85
2023-01-11T06:52:19.099Z,80.64
2023-01-11T06:53:01.071Z,80.91
2023-01-11T06:53:34.440Z,80.92
2023-01-11T06:54:07.905Z,80.87
2023-01-11T06:54:41.321Z,80.97
2023-01-11T06:55:14.734Z,81.08
2023-01-11T06:55:52.739Z,81.20
2023-01-11T06:56:26.174Z,81.38
2023-01-11T06:56:59.515Z,81.73
2023-01-11T06:57:33.916Z,81.58
2023-01-11T06:58:07.342Z,81.55
2023-01-11T06:58:40.917Z,81.52
2023-01-11T06:59:14.337Z,81.56
2023-01-11T06:59:47.750Z,81.75
2023-01-11T07:00:21.808Z,81.45
2023-01-11T07:00:57.339Z,81.52
2023-01-11T07:01:32.541Z,81.73
2023-01-11T07:02:06.621Z,81.71
2023-01-11T07:02:39.988Z,81.65
2023-01-11T07:03:13.644Z,81.74
2023-01-11T07:03:47.004Z,81.76
2023-01-11T07:04:21.833Z,81.91
2023-01-11T07:04:55.293Z,82.18
2023-01-11T07:05:28.718Z,81.82
2023-01-11T07:06:02.857Z,81.86
2023-01-11T07:06:36.494Z,82.02
2023-01-11T07:07:10.011Z,82.21
2023-01-11T07:07:44.196Z,82.61
2023-01-11T07:08:17.667Z,82.11
2023-01-11T07:08:51.056Z,82.04
2023-01-11T07:09:24.396Z,82.14
2023-01-11T07:09:57.753Z,82.01
2023-01-11T07:10:31.444Z,82.35
2023-01-11T07:11:05.057Z,82.44
2023-01-11T07:11:39.433Z,82.55
2023-01-11T07:12:12.777Z,82.64
2023-01-11T07:12:46.148Z,82.79
2023-01-11T07:13:19.905Z,82.90
2023-01-11T07:13:53.229Z,82.79
2023-01-11T07:14:26.632Z,83.02
2023-01-11T07:15:00.157Z,82.83
2023-01-11T07:15:33.886Z,83.06
2023-01-11T07:16:07.589Z,83.01
2023-01-11T07:16:41.721Z,83.03
2023-01-11T07:17:15.190Z,82.98
2023-01-11T07:17:53.383Z,82.94
2023-01-11T07:18:26.835Z,83.06
2023-01-11T07:19:00.295Z,83.11
2023-01-11T07:19:33.739Z,83.04
2023-01-11T07:20:08.101Z,83.16
2023-01-11T07:20:41.971Z,83.21
2023-01-11T07:21:15.405Z,83.36
2023-01-11T07:21:48.873Z,83.26
2023-01-11T07:22:22.971Z,83.12
2023-01-11T07:23:00.559Z,83.16
2023-01-11T07:23:33.956Z,83.49
2023-01-11T07:24:07.399Z,83.47
2023-01-11T07:24:40.755Z,83.63
2023-01-11T07:25:14.242Z,83.72
2023-01-11T07:25:48.733Z,83.85
2023-01-11T07:26:22.178Z,83.91
2023-01-11T07:26:56.545Z,83.88
2023-01-11T07:27:30.057Z,84.08
2023-01-11T07:28:06.039Z,83.98
2023-01-11T07:28:39.483Z,84.06
2023-01-11T07:29:12.824Z,83.66
2023-01-11T07:29:46.921Z,83.51
2023-01-11T07:30:20.522Z,83.78
2023-01-11T07:30:59.389Z,83.75
2023-01-11T07:31:33.475Z,84.02
2023-01-11T07:32:08.453Z,83.94
2023-01-11T07:32:41.911Z,83.97
2023-01-11T07:33:16.627Z,83.76
2023-01-11T07:33:50.177Z,83.74
2023-01-11T07:34:24.145Z,84.07
2023-01-11T07:34:57.605Z,83.90
2023-01-11T07:35:31.132Z,83.95
2023-01-11T07:36:09.098Z,84.01
2023-01-11T07:36:42.450Z,84.09
2023-01-11T07:37:28.134Z,84.10
2023-01-11T07:38:03.304Z,84.17
2023-01-11T07:38:36.722Z,84.03
2023-01-11T07:39:10.222Z,84.22
2023-01-11T07:39:44.192Z,84.30
2023-01-11T07:40:19.417Z,84.44
2023-01-11T07:40:52.816Z,84.33
2023-01-11T07:41:44.717Z,84.54
2023-01-11T07:42:36.991Z,84.34
2023-01-11T07:43:14.912Z,84.28
2023-01-11T07:43:48.472Z,84.35
2023-01-11T07:44:22.011Z,84.33
2023-01-11T07:44:55.521Z,84.54
2023-01-11T07:45:40.842Z,84.32
2023-01-11T07:46:18.509Z,84.73
2023-01-11T07:46:52.215Z,84.68
2023-01-11T07:47:25.804Z,84.79
2023-01-11T07:47:59.229Z,84.82
2023-01-11T07:48:32.627Z,85.01
2023-01-11T07:49:05.998Z,84.69
2023-01-11T07:49:39.367Z,84.84
2023-01-11T07:50:12.836Z,84.83
2023-01-11T07:50:46.684Z,85.11
2023-01-11T07:51:24.315Z,85.07
2023-01-11T07:51:57.747Z,84.92
2023-01-11T07:52:31.235Z,84.93
2023-01-11T07:53:04.688Z,84.83
2023-01-11T07:53:38.128Z,85.04
2023-01-11T07:54:11.471Z,85.03
2023-01-11T07:54:44.941Z,85.00
2023-01-11T07:55:18.391Z,84.96
2023-01-11T07:55:51.813Z,85.02
2023-01-11T07:56:25.241Z,85.10
2023-01-11T07:56:58.936Z,84.90
2023-01-11T07:57:33.314Z,85.26